sensor_id;sensor_type;location;lat;lon;timestamp;pressure;altitude;pressure_sealevel;temperature;humidity
22352;BME280;11343;43.246;27.978;2022-09-12T00:01:30;99070.38;;;21.23;nan
22352;BME280;11343;43.246;27.978;2022-09-12T00:04:36;99063.50;;;21.28;nan
22352;BME280;11343;43.246;27.978;2022-09-12T00:07:42;99065.50;;;21.26;nan
22352;BME280;11343;43.246;27.978;2022-09-12T00:10:48;99055.28;;;21.23;nan
22352;BME280;11343;43.246;27.978;2022-09-12T00:13:56;99050.56;;;21.10;nan
22352;BME280;11343;43.246;27.978;2022-09-12T00:17:02;99060.25;;;21.03;nan
22352;BME280;11343;43.246;27.978;2022-09-12T00:20:08;99067.84;;;20.92;nan
22352;BME280;11343;43.246;27.978;2022-09-12T00:23:14;99066.75;;;20.86;nan
22352;BME280;11343;43.246;27.978;2022-09-12T00:26:21;99079.63;;;20.75;nan
22352;BME280;11343;43.246;27.978;2022-09-12T00:29:32;99090.66;;;20.63;nan
22352;BME280;11343;43.246;27.978;2022-09-12T00:36:13;99098.19;;;20.29;nan
22352;BME280;11343;43.246;27.978;2022-09-12T00:39:18;99094.88;;;20.27;nan
22352;BME280;11343;43.246;27.978;2022-09-12T00:42:24;99096.47;;;20.13;nan
22352;BME280;11343;43.246;27.978;2022-09-12T00:45:31;99091.34;;;20.12;nan
22352;BME280;11343;43.246;27.978;2022-09-12T00:48:38;99088.38;;;20.07;nan
22352;BME280;11343;43.246;27.978;2022-09-12T00:51:47;99105.56;;;20.11;nan
22352;BME280;11343;43.246;27.978;2022-09-12T00:54:56;99119.56;;;19.97;nan
22352;BME280;11343;43.246;27.978;2022-09-12T00:58:02;99124.41;;;19.93;nan
22352;BME280;11343;43.246;27.978;2022-09-12T01:01:12;99145.19;;;19.73;nan
22352;BME280;11343;43.246;27.978;2022-09-12T01:04:17;99163.19;;;19.78;nan
22352;BME280;11343;43.246;27.978;2022-09-12T01:07:24;99166.84;;;19.77;nan
22352;BME280;11343;43.246;27.978;2022-09-12T01:10:29;99168.38;;;19.55;nan
22352;BME280;11343;43.246;27.978;2022-09-12T01:13:35;99174.38;;;19.49;nan
22352;BME280;11343;43.246;27.978;2022-09-12T01:16:42;99159.66;;;19.38;nan
22352;BME280;11343;43.246;27.978;2022-09-12T01:19:54;99161.78;;;19.35;nan
22352;BME280;11343;43.246;27.978;2022-09-12T01:23:18;99150.91;;;19.22;nan
22352;BME280;11343;43.246;27.978;2022-09-12T01:26:40;99163.84;;;19.00;nan
22352;BME280;11343;43.246;27.978;2022-09-12T01:29:58;99153.94;;;19.02;nan
22352;BME280;11343;43.246;27.978;2022-09-12T01:33:15;99156.88;;;18.99;nan
22352;BME280;11343;43.246;27.978;2022-09-12T01:36:33;99158.53;;;19.00;nan
22352;BME280;11343;43.246;27.978;2022-09-12T01:39:42;99152.94;;;18.95;nan
22352;BME280;11343;43.246;27.978;2022-09-12T01:42:52;99155.75;;;18.77;nan
22352;BME280;11343;43.246;27.978;2022-09-12T01:46:03;99162.38;;;18.90;nan
22352;BME280;11343;43.246;27.978;2022-09-12T01:49:13;99165.81;;;18.98;nan
22352;BME280;11343;43.246;27.978;2022-09-12T01:52:20;99157.88;;;18.98;nan
22352;BME280;11343;43.246;27.978;2022-09-12T01:55:28;99153.09;;;19.02;nan
22352;BME280;11343;43.246;27.978;2022-09-12T01:58:37;99154.59;;;18.96;nan
22352;BME280;11343;43.246;27.978;2022-09-12T02:01:45;99152.94;;;18.87;nan
22352;BME280;11343;43.246;27.978;2022-09-12T02:04:55;99142.38;;;18.87;nan
22352;BME280;11343;43.246;27.978;2022-09-12T02:08:04;99140.38;;;18.89;nan
22352;BME280;11343;43.246;27.978;2022-09-12T02:11:11;99131.44;;;18.90;nan
22352;BME280;11343;43.246;27.978;2022-09-12T02:14:18;99133.75;;;18.85;nan
22352;BME280;11343;43.246;27.978;2022-09-12T02:17:25;99128.81;;;18.82;nan
22352;BME280;11343;43.246;27.978;2022-09-12T02:20:33;99132.78;;;18.78;nan
22352;BME280;11343;43.246;27.978;2022-09-12T02:23:52;99138.06;;;18.78;nan
22352;BME280;11343;43.246;27.978;2022-09-12T02:27:02;99126.19;;;18.74;nan
22352;BME280;11343;43.246;27.978;2022-09-12T02:30:09;99128.47;;;18.77;nan
22352;BME280;11343;43.246;27.978;2022-09-12T02:33:19;99128.66;;;18.75;nan
22352;BME280;11343;43.246;27.978;2022-09-12T02:36:33;99125.66;;;18.70;nan
22352;BME280;11343;43.246;27.978;2022-09-12T02:39:43;99126.19;;;18.74;nan
22352;BME280;11343;43.246;27.978;2022-09-12T02:42:48;99131.13;;;18.77;nan
22352;BME280;11343;43.246;27.978;2022-09-12T02:45:54;99130.78;;;18.64;nan
22352;BME280;11343;43.246;27.978;2022-09-12T02:48:59;99139.56;;;18.72;nan
22352;BME280;11343;43.246;27.978;2022-09-12T02:52:06;99129.47;;;18.76;nan
22352;BME280;11343;43.246;27.978;2022-09-12T02:55:11;99132.78;;;18.78;nan
22352;BME280;11343;43.246;27.978;2022-09-12T02:58:18;99150.63;;;18.84;nan
22352;BME280;11343;43.246;27.978;2022-09-12T03:01:28;99155.56;;;18.79;nan
22352;BME280;11343;43.246;27.978;2022-09-12T03:08:11;99153.59;;;18.81;nan
22352;BME280;11343;43.246;27.978;2022-09-12T03:11:31;99143.03;;;18.81;nan
22352;BME280;11343;43.246;27.978;2022-09-12T03:14:45;99134.09;;;18.74;nan
22352;BME280;11343;43.246;27.978;2022-09-12T03:18:04;99141.38;;;18.72;nan
22352;BME280;11343;43.246;27.978;2022-09-12T03:21:17;99134.41;;;18.63;nan
22352;BME280;11343;43.246;27.978;2022-09-12T03:24:29;99134.41;;;18.63;nan
22352;BME280;11343;43.246;27.978;2022-09-12T03:27:37;99143.69;;;18.59;nan
22352;BME280;11343;43.246;27.978;2022-09-12T03:30:47;99130.78;;;18.64;nan
22352;BME280;11343;43.246;27.978;2022-09-12T03:33:54;99128.47;;;18.69;nan
22352;BME280;11343;43.246;27.978;2022-09-12T03:36:59;99118.91;;;18.68;nan
22352;BME280;11343;43.246;27.978;2022-09-12T03:40:07;99121.56;;;18.68;nan
22352;BME280;11343;43.246;27.978;2022-09-12T03:43:13;99113.28;;;18.71;nan
22352;BME280;11343;43.246;27.978;2022-09-12T03:46:30;99106.69;;;18.67;nan
22352;BME280;11343;43.246;27.978;2022-09-12T03:49:44;99111.31;;;18.65;nan
22352;BME280;11343;43.246;27.978;2022-09-12T03:52:51;99113.63;;;18.60;nan
22352;BME280;11343;43.246;27.978;2022-09-12T04:00:11;99121.16;;;18.55;nan
22352;BME280;11343;43.246;27.978;2022-09-12T04:03:22;99123.03;;;18.62;nan
22352;BME280;11343;43.246;27.978;2022-09-12T04:06:27;99123.03;;;18.62;nan
22352;BME280;11343;43.246;27.978;2022-09-12T04:09:34;99128.47;;;18.69;nan
22352;BME280;11343;43.246;27.978;2022-09-12T04:12:39;99123.53;;;18.74;nan
22352;BME280;11343;43.246;27.978;2022-09-12T04:15:55;99117.91;;;18.85;nan
22352;BME280;11343;43.246;27.978;2022-09-12T04:19:01;99135.41;;;18.86;nan
22352;BME280;11343;43.246;27.978;2022-09-12T04:22:06;99153.91;;;18.78;nan
22352;BME280;11343;43.246;27.978;2022-09-12T04:25:12;99156.88;;;18.83;nan
22352;BME280;11343;43.246;27.978;2022-09-12T04:28:17;99149.31;;;18.96;nan
22352;BME280;11343;43.246;27.978;2022-09-12T04:31:24;99139.72;;;18.95;nan
22352;BME280;11343;43.246;27.978;2022-09-12T04:34:30;99150.13;;;18.97;nan
22352;BME280;11343;43.246;27.978;2022-09-12T04:37:36;99154.59;;;18.88;nan
22352;BME280;11343;43.246;27.978;2022-09-12T04:40:41;99145.69;;;18.89;nan
22352;BME280;11343;43.246;27.978;2022-09-12T04:43:47;99140.03;;;18.92;nan
22352;BME280;11343;43.246;27.978;2022-09-12T04:46:56;99151.94;;;18.96;nan
22352;BME280;11343;43.246;27.978;2022-09-12T04:50:02;99146.97;;;18.93;nan
22352;BME280;11343;43.246;27.978;2022-09-12T04:53:08;99147.66;;;18.87;nan
22352;BME280;11343;43.246;27.978;2022-09-12T04:56:13;99160.03;;;18.95;nan
22352;BME280;11343;43.246;27.978;2022-09-12T04:59:19;99154.59;;;18.96;nan
22352;BME280;11343;43.246;27.978;2022-09-12T05:02:26;99142.84;;;18.99;nan
22352;BME280;11343;43.246;27.978;2022-09-12T05:05:31;99138.53;;;18.98;nan
22352;BME280;11343;43.246;27.978;2022-09-12T05:08:37;99145.47;;;18.99;nan
22352;BME280;11343;43.246;27.978;2022-09-12T05:11:43;99140.53;;;18.96;nan
22352;BME280;11343;43.246;27.978;2022-09-12T05:15:08;99148.13;;;18.99;nan
22352;BME280;11343;43.246;27.978;2022-09-12T05:18:15;99140.72;;;18.86;nan
22352;BME280;11343;43.246;27.978;2022-09-12T05:21:21;99156.56;;;18.86;nan
22352;BME280;11343;43.246;27.978;2022-09-12T05:24:27;99152.94;;;18.87;nan
22352;BME280;11343;43.246;27.978;2022-09-12T05:27:33;99137.72;;;18.97;nan
22352;BME280;11343;43.246;27.978;2022-09-12T05:30:38;99154.41;;;18.98;nan
22352;BME280;11343;43.246;27.978;2022-09-12T05:33:46;99145.00;;;19.03;nan
22352;BME280;11343;43.246;27.978;2022-09-12T05:36:52;99154.56;;;19.04;nan
22352;BME280;11343;43.246;27.978;2022-09-12T05:39:57;99162.50;;;19.04;nan
22352;BME280;11343;43.246;27.978;2022-09-12T05:43:03;99154.41;;;19.06;nan
22352;BME280;11343;43.246;27.978;2022-09-12T05:46:09;99154.25;;;19.07;nan
22352;BME280;11343;43.246;27.978;2022-09-12T05:49:16;99161.34;;;19.15;nan
22352;BME280;11343;43.246;27.978;2022-09-12T05:52:21;99152.88;;;19.52;nan
22352;BME280;11343;43.246;27.978;2022-09-12T05:55:27;99143.09;;;19.91;nan
22352;BME280;11343;43.246;27.978;2022-09-12T05:58:35;99141.75;;;20.26;nan
22352;BME280;11343;43.246;27.978;2022-09-12T06:01:41;99148.28;;;20.69;nan
22352;BME280;11343;43.246;27.978;2022-09-12T06:04:48;99148.81;;;20.88;nan
22352;BME280;11343;43.246;27.978;2022-09-12T06:07:54;99142.13;;;20.92;nan
22352;BME280;11343;43.246;27.978;2022-09-12T06:11:00;99146.44;;;20.93;nan
22352;BME280;11343;43.246;27.978;2022-09-12T06:14:06;99137.31;;;20.73;nan
22352;BME280;11343;43.246;27.978;2022-09-12T06:17:13;99134.13;;;20.54;nan
22352;BME280;11343;43.246;27.978;2022-09-12T06:20:19;99131.13;;;20.80;nan
22352;BME280;11343;43.246;27.978;2022-09-12T06:23:25;99132.59;;;21.20;nan
22352;BME280;11343;43.246;27.978;2022-09-12T06:26:30;99131.44;;;21.37;nan
22352;BME280;11343;43.246;27.978;2022-09-12T06:29:36;99143.63;;;21.09;nan
22352;BME280;11343;43.246;27.978;2022-09-12T06:32:41;99146.16;;;20.88;nan
22352;BME280;11343;43.246;27.978;2022-09-12T06:35:48;99151.25;;;20.75;nan
22352;BME280;11343;43.246;27.978;2022-09-12T06:38:54;99133.97;;;21.16;nan
22352;BME280;11343;43.246;27.978;2022-09-12T06:42:00;99132.25;;;21.38;nan
22352;BME280;11343;43.246;27.978;2022-09-12T06:45:07;99132.06;;;21.39;nan
22352;BME280;11343;43.246;27.978;2022-09-12T06:48:13;99145.47;;;21.08;nan
22352;BME280;11343;43.246;27.978;2022-09-12T06:51:19;99141.97;;;21.08;nan
22352;BME280;11343;43.246;27.978;2022-09-12T06:54:25;99139.50;;;21.06;nan
22352;BME280;11343;43.246;27.978;2022-09-12T06:57:30;99137.03;;;21.05;nan
22352;BME280;11343;43.246;27.978;2022-09-12T07:00:39;99138.09;;;21.33;nan
22352;BME280;11343;43.246;27.978;2022-09-12T07:03:46;99131.94;;;21.77;nan
22352;BME280;11343;43.246;27.978;2022-09-12T07:06:53;99139.59;;;22.31;nan
22352;BME280;11343;43.246;27.978;2022-09-12T07:09:58;99137.44;;;22.83;nan
22352;BME280;11343;43.246;27.978;2022-09-12T07:13:03;99135.53;;;22.98;nan
22352;BME280;11343;43.246;27.978;2022-09-12T07:16:09;99144.19;;;22.79;nan
22352;BME280;11343;43.246;27.978;2022-09-12T07:19:17;99142.25;;;22.94;nan
22352;BME280;11343;43.246;27.978;2022-09-12T07:22:24;99150.03;;;23.24;nan
22352;BME280;11343;43.246;27.978;2022-09-12T07:25:30;99162.09;;;23.20;nan
22352;BME280;11343;43.246;27.978;2022-09-12T07:28:35;99149.31;;;23.64;nan
22352;BME280;11343;43.246;27.978;2022-09-12T07:31:41;99148.75;;;23.82;nan
22352;BME280;11343;43.246;27.978;2022-09-12T07:34:46;99147.81;;;24.03;nan
22352;BME280;11343;43.246;27.978;2022-09-12T07:37:54;99154.53;;;24.33;nan
22352;BME280;11343;43.246;27.978;2022-09-12T07:40:59;99152.34;;;24.70;nan
22352;BME280;11343;43.246;27.978;2022-09-12T07:44:05;99154.63;;;25.12;nan
22352;BME280;11343;43.246;27.978;2022-09-12T07:47:10;99150.28;;;25.44;nan
22352;BME280;11343;43.246;27.978;2022-09-12T07:50:16;99144.31;;;25.62;nan
22352;BME280;11343;43.246;27.978;2022-09-12T07:53:24;99134.78;;;25.86;nan
22352;BME280;11343;43.246;27.978;2022-09-12T07:56:29;99146.06;;;26.39;nan
22352;BME280;11343;43.246;27.978;2022-09-12T07:59:41;99146.28;;;26.69;nan
22352;BME280;11343;43.246;27.978;2022-09-12T08:02:56;99141.75;;;26.69;nan
22352;BME280;11343;43.246;27.978;2022-09-12T08:06:02;99147.69;;;27.03;nan
22352;BME280;11343;43.246;27.978;2022-09-12T08:08:51;99148.13;;;27.00;nan
22352;BME280;11343;43.246;27.978;2022-09-12T08:11:38;99144.31;;;26.51;nan
22352;BME280;11343;43.246;27.978;2022-09-12T08:14:25;99144.31;;;26.51;nan
22352;BME280;11343;43.246;27.978;2022-09-12T08:17:13;99146.97;;;26.26;nan
22352;BME280;11343;43.246;27.978;2022-09-12T08:20:00;99138.06;;;26.32;nan
22352;BME280;11343;43.246;27.978;2022-09-12T08:22:48;99142.03;;;26.17;nan
22352;BME280;11343;43.246;27.978;2022-09-12T08:25:37;99136.09;;;26.52;nan
22352;BME280;11343;43.246;27.978;2022-09-12T08:28:24;99133.56;;;26.64;nan
22352;BME280;11343;43.246;27.978;2022-09-12T08:31:12;99133.56;;;26.64;nan
22352;BME280;11343;43.246;27.978;2022-09-12T08:33:59;99139.84;;;26.45;nan
22352;BME280;11343;43.246;27.978;2022-09-12T08:36:46;99136.22;;;26.33;nan
22352;BME280;11343;43.246;27.978;2022-09-12T08:39:33;99132.59;;;26.52;nan
22352;BME280;11343;43.246;27.978;2022-09-12T08:42:24;99124.72;;;27.75;nan
22352;BME280;11343;43.246;27.978;2022-09-12T08:45:16;99116.97;;;28.33;nan
22352;BME280;11343;43.246;27.978;2022-09-12T08:48:04;99123.63;;;27.94;nan
22352;BME280;11343;43.246;27.978;2022-09-12T08:50:52;99114.78;;;28.83;nan
22352;BME280;11343;43.246;27.978;2022-09-12T08:53:39;99111.38;;;29.57;nan
22352;BME280;11343;43.246;27.978;2022-09-12T08:56:28;99110.63;;;28.69;nan
22352;BME280;11343;43.246;27.978;2022-09-12T08:59:18;99107.03;;;30.36;nan
22352;BME280;11343;43.246;27.978;2022-09-12T09:02:12;99097.84;;;30.21;nan
22352;BME280;11343;43.246;27.978;2022-09-12T09:05:11;99097.25;;;29.27;nan
22352;BME280;11343;43.246;27.978;2022-09-12T09:08:05;99099.66;;;29.75;nan
22352;BME280;11343;43.246;27.978;2022-09-12T09:10:58;99093.63;;;29.45;nan
22352;BME280;11343;43.246;27.978;2022-09-12T09:13:54;99091.84;;;28.69;nan
22352;BME280;11343;43.246;27.978;2022-09-12T09:17:03;99089.16;;;28.69;nan
22352;BME280;11343;43.246;27.978;2022-09-12T09:19:58;99090.94;;;28.75;nan
22352;BME280;11343;43.246;27.978;2022-09-12T09:22:49;99086.94;;;28.24;nan
22352;BME280;11343;43.246;27.978;2022-09-12T09:25:41;99085.00;;;27.83;nan
22352;BME280;11343;43.246;27.978;2022-09-12T09:28:32;99083.84;;;28.39;nan
22352;BME280;11343;43.246;27.978;2022-09-12T09:31:21;99083.81;;;29.15;nan
22352;BME280;11343;43.246;27.978;2022-09-12T09:34:12;99076.53;;;29.51;nan
22352;BME280;11343;43.246;27.978;2022-09-12T09:37:01;99075.81;;;29.67;nan
22352;BME280;11343;43.246;27.978;2022-09-12T09:40:07;99069.00;;;29.76;nan
22352;BME280;11343;43.246;27.978;2022-09-12T09:43:01;99068.50;;;29.79;nan
22352;BME280;11343;43.246;27.978;2022-09-12T09:45:52;99076.00;;;29.37;nan
22352;BME280;11343;43.246;27.978;2022-09-12T09:48:40;99066.53;;;29.11;nan
22352;BME280;11343;43.246;27.978;2022-09-12T09:51:34;99074.94;;;29.27;nan
22352;BME280;11343;43.246;27.978;2022-09-12T09:54:22;99072.34;;;29.55;nan
22352;BME280;11343;43.246;27.978;2022-09-12T10:00:20;99075.41;;;28.77;nan
22352;BME280;11343;43.246;27.978;2022-09-12T10:06:20;99069.16;;;27.93;nan
22352;BME280;11343;43.246;27.978;2022-09-12T10:09:20;99080.41;;;28.02;nan
22352;BME280;11343;43.246;27.978;2022-09-12T10:12:18;99073.59;;;27.88;nan
22352;BME280;11343;43.246;27.978;2022-09-12T10:15:15;99074.13;;;28.08;nan
22352;BME280;11343;43.246;27.978;2022-09-12T10:18:02;99070.41;;;28.27;nan
22352;BME280;11343;43.246;27.978;2022-09-12T10:20:50;99073.78;;;28.76;nan
22352;BME280;11343;43.246;27.978;2022-09-12T10:23:37;99079.66;;;28.55;nan
22352;BME280;11343;43.246;27.978;2022-09-12T10:26:29;99086.09;;;27.94;nan
22352;BME280;11343;43.246;27.978;2022-09-12T10:29:19;99093.25;;;27.45;nan
22352;BME280;11343;43.246;27.978;2022-09-12T10:32:08;99095.34;;;27.00;nan
22352;BME280;11343;43.246;27.978;2022-09-12T10:34:58;99082.94;;;26.56;nan
22352;BME280;11343;43.246;27.978;2022-09-12T10:37:53;99081.94;;;26.26;nan
22352;BME280;11343;43.246;27.978;2022-09-12T10:40:42;99079.06;;;26.52;nan
22352;BME280;11343;43.246;27.978;2022-09-12T10:43:33;99087.63;;;26.36;nan
22352;BME280;11343;43.246;27.978;2022-09-12T10:46:27;99084.34;;;26.34;nan
22352;BME280;11343;43.246;27.978;2022-09-12T10:49:22;99087.38;;;26.06;nan
22352;BME280;11343;43.246;27.978;2022-09-12T10:52:16;99091.09;;;25.98;nan
22352;BME280;11343;43.246;27.978;2022-09-12T10:55:04;99092.38;;;25.89;nan
22352;BME280;11343;43.246;27.978;2022-09-12T10:57:58;99086.66;;;25.79;nan
22352;BME280;11343;43.246;27.978;2022-09-12T11:00:54;99083.41;;;25.77;nan
22352;BME280;11343;43.246;27.978;2022-09-12T11:03:48;99087.72;;;25.78;nan
22352;BME280;11343;43.246;27.978;2022-09-12T11:06:41;99080.50;;;25.85;nan
22352;BME280;11343;43.246;27.978;2022-09-12T11:09:33;99082.94;;;25.80;nan
22352;BME280;11343;43.246;27.978;2022-09-12T11:12:24;99085.38;;;25.88;nan
22352;BME280;11343;43.246;27.978;2022-09-12T11:15:28;99087.66;;;25.91;nan
22352;BME280;11343;43.246;27.978;2022-09-12T11:18:28;99084.88;;;26.11;nan
22352;BME280;11343;43.246;27.978;2022-09-12T11:21:24;99077.88;;;26.10;nan
22352;BME280;11343;43.246;27.978;2022-09-12T11:24:20;99076.16;;;26.29;nan
22352;BME280;11343;43.246;27.978;2022-09-12T11:27:12;99070.66;;;26.10;nan
22352;BME280;11343;43.246;27.978;2022-09-12T11:30:04;99077.03;;;25.78;nan
22352;BME280;11343;43.246;27.978;2022-09-12T11:35:57;99079.13;;;25.56;nan
22352;BME280;11343;43.246;27.978;2022-09-12T11:38:51;99080.56;;;25.59;nan
22352;BME280;11343;43.246;27.978;2022-09-12T11:41:44;99077.75;;;25.41;nan
22352;BME280;11343;43.246;27.978;2022-09-12T11:44:33;99071.13;;;25.63;nan
22352;BME280;11343;43.246;27.978;2022-09-12T11:47:25;99059.09;;;25.85;nan
22352;BME280;11343;43.246;27.978;2022-09-12T11:50:15;99063.53;;;25.98;nan
22352;BME280;11343;43.246;27.978;2022-09-12T11:53:09;99065.22;;;26.24;nan
22352;BME280;11343;43.246;27.978;2022-09-12T11:56:01;99067.69;;;26.32;nan
22352;BME280;11343;43.246;27.978;2022-09-12T11:58:52;99080.34;;;26.11;nan
22352;BME280;11343;43.246;27.978;2022-09-12T12:01:41;99075.41;;;26.08;nan
22352;BME280;11343;43.246;27.978;2022-09-12T12:04:35;99071.94;;;26.01;nan
22352;BME280;11343;43.246;27.978;2022-09-12T12:07:23;99066.00;;;25.99;nan
22352;BME280;11343;43.246;27.978;2022-09-12T12:10:21;99069.72;;;25.98;nan
22352;BME280;11343;43.246;27.978;2022-09-12T12:13:15;99074.69;;;25.88;nan
22352;BME280;11343;43.246;27.978;2022-09-12T12:16:05;99071.84;;;25.83;nan
22352;BME280;11343;43.246;27.978;2022-09-12T12:18:53;99069.41;;;25.75;nan
22352;BME280;11343;43.246;27.978;2022-09-12T12:21:42;99065.72;;;25.76;nan
22352;BME280;11343;43.246;27.978;2022-09-12T12:24:30;99073.06;;;25.87;nan
22352;BME280;11343;43.246;27.978;2022-09-12T12:27:24;99069.63;;;26.11;nan
22352;BME280;11343;43.246;27.978;2022-09-12T12:36:36;99065.44;;;26.29;nan
22352;BME280;11343;43.246;27.978;2022-09-12T12:49:08;99075.19;;;26.10;nan
22352;BME280;11343;43.246;27.978;2022-09-12T12:51:58;99077.50;;;26.06;nan
22352;BME280;11343;43.246;27.978;2022-09-12T12:54:48;99075.88;;;25.99;nan
22352;BME280;11343;43.246;27.978;2022-09-12T13:00:38;99072.59;;;25.97;nan
22352;BME280;11343;43.246;27.978;2022-09-12T13:03:27;99075.47;;;25.95;nan
22352;BME280;11343;43.246;27.978;2022-09-12T13:06:25;99073.56;;;25.71;nan
22352;BME280;11343;43.246;27.978;2022-09-12T13:09:18;99078.13;;;25.64;nan
22352;BME280;11343;43.246;27.978;2022-09-12T13:12:09;99083.25;;;25.59;nan
22352;BME280;11343;43.246;27.978;2022-09-12T13:14:58;99083.88;;;25.54;nan
22352;BME280;11343;43.246;27.978;2022-09-12T13:17:45;99081.41;;;25.46;nan
22352;BME280;11343;43.246;27.978;2022-09-12T13:20:34;99088.47;;;25.27;nan
22352;BME280;11343;43.246;27.978;2022-09-12T13:23:26;99090.53;;;25.25;nan
22352;BME280;11343;43.246;27.978;2022-09-12T13:26:13;99088.88;;;25.24;nan
22352;BME280;11343;43.246;27.978;2022-09-12T13:29:10;99095.84;;;25.25;nan
22352;BME280;11343;43.246;27.978;2022-09-12T13:31:58;99093.00;;;25.20;nan
22352;BME280;11343;43.246;27.978;2022-09-12T13:34:54;99086.84;;;25.13;nan
22352;BME280;11343;43.246;27.978;2022-09-12T13:37:46;99093.44;;;25.04;nan
22352;BME280;11343;43.246;27.978;2022-09-12T13:40:40;99083.56;;;25.11;nan
22352;BME280;11343;43.246;27.978;2022-09-12T13:43:35;99090.53;;;25.12;nan
22352;BME280;11343;43.246;27.978;2022-09-12T13:46:25;99086.44;;;25.03;nan
22352;BME280;11343;43.246;27.978;2022-09-12T13:49:16;99092.44;;;24.92;nan
22352;BME280;11343;43.246;27.978;2022-09-12T13:52:06;99089.75;;;24.92;nan
22352;BME280;11343;43.246;27.978;2022-09-12T13:54:54;99088.91;;;24.85;nan
22352;BME280;11343;43.246;27.978;2022-09-12T13:57:44;99090.56;;;24.79;nan
22352;BME280;11343;43.246;27.978;2022-09-12T14:00:32;99094.84;;;24.74;nan
22352;BME280;11343;43.246;27.978;2022-09-12T14:03:24;99092.19;;;24.74;nan
22352;BME280;11343;43.246;27.978;2022-09-12T14:06:33;99093.00;;;24.74;nan
22352;BME280;11343;43.246;27.978;2022-09-12T14:09:22;99086.84;;;24.67;nan
22352;BME280;11343;43.246;27.978;2022-09-12T14:12:12;99100.81;;;24.63;nan
22352;BME280;11343;43.246;27.978;2022-09-12T14:15:05;99090.13;;;24.63;nan
22352;BME280;11343;43.246;27.978;2022-09-12T14:17:55;99097.31;;;24.62;nan
22352;BME280;11343;43.246;27.978;2022-09-12T14:20:45;99091.34;;;24.60;nan
22352;BME280;11343;43.246;27.978;2022-09-12T14:23:32;99095.28;;;24.57;nan
22352;BME280;11343;43.246;27.978;2022-09-12T14:26:22;99104.50;;;24.55;nan
22352;BME280;11343;43.246;27.978;2022-09-12T14:29:11;99102.84;;;24.47;nan
22352;BME280;11343;43.246;27.978;2022-09-12T14:32:03;99102.00;;;24.40;nan
22352;BME280;11343;43.246;27.978;2022-09-12T14:35:03;99099.16;;;24.42;nan
22352;BME280;11343;43.246;27.978;2022-09-12T14:37:50;99106.53;;;24.46;nan
22352;BME280;11343;43.246;27.978;2022-09-12T14:40:41;99111.06;;;24.52;nan
22352;BME280;11343;43.246;27.978;2022-09-12T14:43:29;99107.78;;;24.50;nan
22352;BME280;11343;43.246;27.978;2022-09-12T14:46:17;99112.06;;;24.51;nan
22352;BME280;11343;43.246;27.978;2022-09-12T14:49:08;99110.66;;;24.49;nan
22352;BME280;11343;43.246;27.978;2022-09-12T14:52:00;99106.13;;;24.49;nan
22352;BME280;11343;43.246;27.978;2022-09-12T14:54:58;99104.06;;;24.51;nan
22352;BME280;11343;43.246;27.978;2022-09-12T14:58:11;99096.28;;;24.43;nan
22352;BME280;11343;43.246;27.978;2022-09-12T15:01:01;99100.78;;;24.36;nan
22352;BME280;11343;43.246;27.978;2022-09-12T15:03:49;99101.63;;;24.37;nan
22352;BME280;11343;43.246;27.978;2022-09-12T15:06:39;99103.47;;;24.36;nan
22352;BME280;11343;43.246;27.978;2022-09-12T15:09:26;99112.88;;;24.32;nan
22352;BME280;11343;43.246;27.978;2022-09-12T15:12:13;99099.13;;;24.35;nan
22352;BME280;11343;43.246;27.978;2022-09-12T15:15:05;99102.00;;;24.34;nan
22352;BME280;11343;43.246;27.978;2022-09-12T15:17:58;99095.53;;;24.02;nan
22352;BME280;11343;43.246;27.978;2022-09-12T15:20:51;99097.44;;;24.14;nan
22352;BME280;11343;43.246;27.978;2022-09-12T15:23:41;99093.91;;;24.01;nan
22352;BME280;11343;43.246;27.978;2022-09-12T15:26:30;99094.94;;;24.00;nan
22352;BME280;11343;43.246;27.978;2022-09-12T15:29:18;99097.81;;;24.05;nan
22352;BME280;11343;43.246;27.978;2022-09-12T15:32:05;99091.66;;;24.04;nan
22352;BME280;11343;43.246;27.978;2022-09-12T15:35:00;99094.47;;;23.90;nan
22352;BME280;11343;43.246;27.978;2022-09-12T15:37:48;99094.09;;;23.93;nan
22352;BME280;11343;43.246;27.978;2022-09-12T15:40:37;99094.72;;;24.01;nan
22352;BME280;11343;43.246;27.978;2022-09-12T15:43:24;99098.81;;;23.97;nan
22352;BME280;11343;43.246;27.978;2022-09-12T15:46:12;99094.09;;;23.93;nan
22352;BME280;11343;43.246;27.978;2022-09-12T15:49:00;99087.31;;;23.97;nan
22352;BME280;11343;43.246;27.978;2022-09-12T15:51:47;99083.41;;;23.93;nan
22352;BME280;11343;43.246;27.978;2022-09-12T15:54:35;99090.97;;;23.83;nan
22352;BME280;11343;43.246;27.978;2022-09-12T15:57:23;99092.78;;;23.75;nan
22352;BME280;11343;43.246;27.978;2022-09-12T16:00:11;99087.22;;;23.70;nan
22352;BME280;11343;43.246;27.978;2022-09-12T16:02:58;99092.75;;;23.69;nan
22352;BME280;11343;43.246;27.978;2022-09-12T16:05:46;99095.22;;;23.70;nan
22352;BME280;11343;43.246;27.978;2022-09-12T16:08:33;99094.41;;;23.70;nan
22352;BME280;11343;43.246;27.978;2022-09-12T16:11:20;99093.56;;;23.63;nan
22352;BME280;11343;43.246;27.978;2022-09-12T16:14:09;99099.69;;;23.63;nan
22352;BME280;11343;43.246;27.978;2022-09-12T16:16:59;99096.41;;;23.61;nan
22352;BME280;11343;43.246;27.978;2022-09-12T16:19:46;99099.22;;;23.53;nan
22352;BME280;11343;43.246;27.978;2022-09-12T16:22:33;99098.41;;;23.53;nan
22352;BME280;11343;43.246;27.978;2022-09-12T16:25:20;99096.09;;;23.43;nan
22352;BME280;11343;43.246;27.978;2022-09-12T16:28:07;99085.19;;;23.38;nan
22352;BME280;11343;43.246;27.978;2022-09-12T16:30:56;99099.53;;;23.37;nan
22352;BME280;11343;43.246;27.978;2022-09-12T16:33:44;99099.28;;;23.32;nan
22352;BME280;11343;43.246;27.978;2022-09-12T16:36:31;99090.06;;;23.28;nan
22352;BME280;11343;43.246;27.978;2022-09-12T16:39:18;99091.84;;;23.21;nan